Time;durP1;ratioP1;P1;durP2;ratioP2;P2;SDS_P1;SDS_P2;PMS_P1;PMS_P2;Temp;Humidity;BMP_temperature;BMP_pressure;BME280_temperature;BME280_humidity;BME280_pressure;Samples;Min_cycle;Max_cycle;Signal;HPM_P1;HPM_P2
2022/10/19 00:01:15;;;;;;;13.70;9.60;;;;;;;14.09;77.05;100890.02;100411;1286;142946;-64
2022/10/19 00:03:47;;;;;;;13.30;9.40;;;;;;;14.10;77.16;100887.32;100359;1283;108703;-65
2022/10/19 00:06:28;;;;;;;13.90;9.30;;;;;;;14.10;77.10;100885.72;100418;1284;95564;-63
2022/10/19 00:09:17;;;;;;;15.90;9.40;;;;;;;14.09;77.27;100882.34;100257;1283;139297;-64
2022/10/19 00:11:48;;;;;;;14.40;9.70;;;;;;;14.15;77.04;100882.33;100350;1291;109027;-63
2022/10/19 00:14:22;;;;;;;13.20;9.30;;;;;;;14.11;76.77;100881.77;100284;1291;140103;-64
2022/10/19 00:16:51;;;;;;;14.70;9.50;;;;;;;14.02;77.02;100881.52;100460;1299;108833;-65
2022/10/19 00:19:23;;;;;;;14.30;9.20;;;;;;;14.01;77.15;100876.38;100539;1291;139349;-64
2022/10/19 00:21:52;;;;;;;14.10;9.40;;;;;;;13.95;76.93;100878.18;100396;1291;95263;-64
2022/10/19 00:24:20;;;;;;;12.80;8.90;;;;;;;13.86;76.97;100878.98;100328;1290;108895;-65
2022/10/19 00:26:48;;;;;;;13.80;8.50;;;;;;;13.82;76.88;100882.34;100246;1297;139099;-65
2022/10/19 00:29:16;;;;;;;13.20;8.40;;;;;;;13.75;76.89;100880.23;100380;1290;107652;-64
2022/10/19 00:31:44;;;;;;;12.90;8.50;;;;;;;13.73;76.77;100875.46;100322;1291;139041;-63
2022/10/19 00:34:12;;;;;;;14.40;9.10;;;;;;;13.72;76.63;100876.41;100555;1284;95604;-63
2022/10/19 00:36:40;;;;;;;13.70;8.90;;;;;;;13.68;76.50;100876.17;100645;1290;109855;-62
2022/10/19 00:39:15;;;;;;;13.10;8.60;;;;;;;13.66;76.39;100876.21;100427;1284;139166;-64
2022/10/19 00:41:45;;;;;;;14.00;8.50;;;;;;;13.63;76.47;100875.64;100561;1297;108618;-64
2022/10/19 00:44:12;;;;;;;11.80;8.00;;;;;;;13.62;76.43;100876.71;100465;1291;139042;-65
2022/10/19 00:46:43;;;;;;;13.90;8.20;;;;;;;13.59;76.26;100876.44;100674;1284;96822;-63
2022/10/19 00:49:12;;;;;;;13.10;8.60;;;;;;;13.52;76.22;100876.29;100456;1291;138504;-64
2022/10/19 00:51:45;;;;;;;13.00;7.90;;;;;;;13.48;76.34;100877.48;100542;1290;99265;-63
2022/10/19 00:54:14;;;;;;;14.10;8.70;;;;;;;13.41;76.28;100878.95;100590;1287;107747;-64
2022/10/19 00:56:45;;;;;;;14.50;9.00;;;;;;;13.40;76.41;100880.59;100583;1283;139489;-63
2022/10/19 00:59:17;;;;;;;12.10;7.90;;;;;;;13.41;76.30;100880.41;100606;1286;95275;-63
2022/10/19 01:01:46;;;;;;;13.70;8.80;;;;;;;13.36;76.22;100880.02;100382;1284;138256;-63
2022/10/19 01:04:14;;;;;;;12.90;8.20;;;;;;;13.30;76.15;100875.14;100491;1291;98365;-63
2022/10/19 01:06:42;;;;;;;13.70;7.90;;;;;;;13.25;76.46;100870.14;100326;1290;108499;-62
2022/10/19 01:09:10;;;;;;;14.20;8.10;;;;;;;13.17;76.43;100867.50;100286;1288;139586;-64
2022/10/19 01:12:00;;;;;;;12.30;7.90;;;;;;;13.12;76.59;100866.42;100454;1290;95301;-64
2022/10/19 01:14:40;;;;;;;12.80;8.70;;;;;;;13.09;76.72;100858.30;100387;1290;138169;-64
2022/10/19 01:17:49;;;;;;;13.90;8.20;;;;;;;13.04;76.81;100851.83;100323;1291;98183;-63
2022/10/19 01:20:48;;;;;;;12.00;7.30;;;;;;;12.99;76.87;100849.69;100122;1291;138806;-62
2022/10/19 01:23:22;;;;;;;12.70;7.00;;;;;;;12.95;76.92;100847.14;100294;1309;95274;-64
2022/10/19 01:25:58;;;;;;;14.20;7.60;;;;;;;12.99;77.03;100846.13;100288;1284;139001;-61
2022/10/19 01:29:07;;;;;;;14.60;7.30;;;;;;;13.00;76.78;100852.15;100361;1290;109373;-64
2022/10/19 01:31:57;;;;;;;13.10;6.70;;;;;;;12.98;76.57;100849.16;100376;1291;138825;-63
2022/10/19 01:34:31;;;;;;;11.60;6.70;;;;;;;12.93;76.55;100846.27;100194;1291;245319;-65
2022/10/19 01:37:15;;;;;;;13.30;6.90;;;;;;;12.94;76.80;100839.85;100225;1291;139589;-64
2022/10/19 01:39:52;;;;;;;11.80;6.80;;;;;;;12.96;76.62;100835.16;100409;1290;96049;-64
2022/10/19 01:43:15;;;;;;;12.70;7.60;;;;;;;12.99;76.53;100832.75;100360;1291;108710;-62
2022/10/19 01:46:05;;;;;;;12.10;7.40;;;;;;;12.94;76.75;100835.57;99727;1296;98188;-63
2022/10/19 01:48:36;;;;;;;14.70;7.50;;;;;;;12.92;76.61;100832.60;100496;1291;108395;-63
2022/10/19 01:51:11;;;;;;;15.30;7.60;;;;;;;12.86;76.85;100832.23;100666;1290;139123;-63
2022/10/19 01:53:45;;;;;;;13.30;6.70;;;;;;;12.88;76.92;100826.84;100567;1291;96204;-64
2022/10/19 01:56:16;;;;;;;12.20;7.20;;;;;;;12.87;76.79;100823.65;100493;1292;138832;-64
2022/10/19 01:58:46;;;;;;;14.50;7.50;;;;;;;12.84;76.74;100826.05;100599;1291;98436;-63
2022/10/19 02:01:18;;;;;;;15.10;7.10;;;;;;;12.79;76.93;100822.44;100323;1287;139263;-65
2022/10/19 02:03:49;;;;;;;13.40;7.40;;;;;;;12.75;76.87;100819.02;100511;1291;95355;-63
2022/10/19 02:06:17;;;;;;;13.40;7.30;;;;;;;12.72;77.21;100824.79;100687;1283;96288;-65
2022/10/19 02:08:47;;;;;;;15.50;8.20;;;;;;;12.70;77.03;100819.67;100572;1284;138160;-63
2022/10/19 02:11:17;;;;;;;15.00;8.10;;;;;;;12.67;77.38;100818.52;100663;1287;98049;-62
2022/10/19 02:13:50;;;;;;;14.80;7.30;;;;;;;12.66;77.54;100818.91;100658;1298;140001;-64
2022/10/19 02:16:24;;;;;;;13.30;8.10;;;;;;;12.63;77.58;100812.92;100587;1286;95249;-65
2022/10/19 02:18:54;;;;;;;12.00;7.20;;;;;;;12.64;77.69;100816.13;100588;1298;98076;-65
2022/10/19 02:21:22;;;;;;;12.70;8.10;;;;;;;12.63;77.60;100814.52;100376;1287;138085;-64
2022/10/19 02:23:50;;;;;;;14.20;7.60;;;;;;;12.59;77.55;100811.24;100303;1283;99676;-65
2022/10/19 02:26:21;;;;;;;13.10;7.30;;;;;;;12.55;77.60;100808.52;100291;1288;139018;-65
2022/10/19 02:28:49;;;;;;;15.20;8.20;;;;;;;12.53;77.81;100808.92;100332;1290;95277;-65
2022/10/19 02:31:17;;;;;;;14.80;8.10;;;;;;;12.56;77.72;100806.72;100279;1290;139292;-64
2022/10/19 02:33:45;;;;;;;14.50;8.40;;;;;;;12.54;77.63;100809.80;100395;1288;112336;-65
2022/10/19 02:36:13;;;;;;;16.40;8.20;;;;;;;12.53;77.54;100804.83;100345;1290;98464;-66
2022/10/19 02:38:41;;;;;;;14.50;7.80;;;;;;;12.52;77.45;100804.49;100256;1291;139397;-65
2022/10/19 02:41:20;;;;;;;15.70;8.20;;;;;;;12.52;77.50;100805.21;100358;1291;95430;-63
2022/10/19 02:43:55;;;;;;;18.40;8.70;;;;;;;12.52;77.31;100805.73;100344;1290;139529;-64
2022/10/19 02:46:36;;;;;;;15.50;8.30;;;;;;;12.48;77.25;100802.64;100397;1290;109366;-64
2022/10/19 02:49:07;;;;;;;15.20;8.60;;;;;;;12.44;77.32;100798.84;100340;1307;139409;-57
2022/10/19 02:51:37;;;;;;;14.50;8.10;;;;;;;12.44;77.34;100800.46;100396;1291;108123;-56
2022/10/19 02:54:06;;;;;;;17.60;9.10;;;;;;;12.45;77.34;100800.23;100386;1291;95810;-58
2022/10/19 02:56:34;;;;;;;14.40;8.30;;;;;;;12.49;77.24;100803.73;100397;1290;139500;-57
2022/10/19 02:59:02;;;;;;;13.50;8.50;;;;;;;12.48;77.16;100804.44;100292;1290;110266;-55
2022/10/19 03:01:30;;;;;;;14.70;8.70;;;;;;;12.45;77.10;100801.15;100527;1290;139120;-57
2022/10/19 03:03:58;;;;;;;13.50;8.20;;;;;;;12.43;77.06;100799.77;100352;1286;108419;-56
2022/10/19 03:06:26;;;;;;;14.50;8.40;;;;;;;12.40;77.06;100795.57;100320;1290;95309;-58
2022/10/19 03:08:54;;;;;;;13.80;7.30;;;;;;;12.37;77.05;100792.61;100274;1284;139053;-57
2022/10/19 03:11:21;;;;;;;14.60;8.00;;;;;;;12.35;76.94;100794.27;100523;1284;110036;-58
2022/10/19 03:13:49;;;;;;;15.50;8.50;;;;;;;12.34;76.98;100787.55;100268;1291;138764;-57
2022/10/19 03:16:17;;;;;;;13.10;7.50;;;;;;;12.30;76.98;100787.84;100314;1283;107747;-58
2022/10/19 03:18:47;;;;;;;13.20;7.60;;;;;;;12.29;76.92;100789.80;100330;1290;95723;-58
2022/10/19 03:21:16;;;;;;;12.30;7.60;;;;;;;12.30;77.07;100794.59;100225;1288;139279;-58
2022/10/19 03:23:44;;;;;;;16.10;7.90;;;;;;;12.34;76.72;100790.02;100335;1283;109299;-57
2022/10/19 03:26:14;;;;;;;14.30;8.20;;;;;;;12.32;76.54;100786.01;100285;1291;138374;-58
2022/10/19 03:28:42;;;;;;;13.50;7.70;;;;;;;12.29;76.48;100789.10;100254;1291;108945;-58
2022/10/19 03:31:10;;;;;;;13.10;7.60;;;;;;;12.24;76.64;100785.50;100447;1284;139258;-58
2022/10/19 03:33:38;;;;;;;13.40;7.40;;;;;;;12.23;76.64;100788.90;100394;1290;95653;-58
2022/10/19 03:36:12;;;;;;;13.50;7.30;;;;;;;12.26;76.65;100784.37;100372;1291;108792;-58
2022/10/19 03:38:40;;;;;;;14.10;8.00;;;;;;;12.22;76.62;100779.33;100306;1292;138956;-57
2022/10/19 03:41:08;;;;;;;13.80;8.10;;;;;;;12.17;76.41;100781.94;100354;1290;107642;-57
2022/10/19 03:43:36;;;;;;;14.50;7.70;;;;;;;12.09;76.76;100784.83;100462;1291;139778;-57
2022/10/19 03:46:04;;;;;;;15.40;7.80;;;;;;;12.06;76.91;100779.20;100336;1289;95264;-57
2022/10/19 03:48:32;;;;;;;14.40;8.30;;;;;;;12.05;77.05;100779.59;100416;1291;108436;-59
2022/10/19 03:51:04;;;;;;;15.40;8.20;;;;;;;12.03;77.11;100777.84;100326;1284;139359;-57
2022/10/19 03:53:32;;;;;;;13.00;8.10;;;;;;;12.00;77.16;100778.84;100436;1290;108252;-57
2022/10/19 03:56:02;;;;;;;15.00;7.60;;;;;;;11.98;77.08;100775.69;100238;1290;139793;-56
2022/10/19 03:58:32;;;;;;;14.20;7.50;;;;;;;11.98;77.10;100772.66;100612;1291;95782;-57
2022/10/19 04:01:01;;;;;;;12.60;7.10;;;;;;;12.00;76.90;100772.61;100444;1290;107599;-57
2022/10/19 04:03:29;;;;;;;13.20;7.50;;;;;;;11.99;76.74;100774.58;100694;1291;99182;-57
2022/10/19 04:06:05;;;;;;;12.10;7.50;;;;;;;11.97;76.95;100777.48;100378;1290;107347;-57
2022/10/19 04:08:33;;;;;;;14.70;7.40;;;;;;;11.94;77.09;100773.45;100276;1291;139176;-58
2022/10/19 04:11:04;;;;;;;13.40;7.10;;;;;;;11.96;77.02;100773.05;100338;1283;95700;-58
2022/10/19 04:13:34;;;;;;;13.90;6.90;;;;;;;12.00;76.91;100769.05;100488;1287;139048;-57
2022/10/19 04:16:02;;;;;;;13.80;7.40;;;;;;;12.00;76.78;100771.36;100722;1290;98452;-59
2022/10/19 04:18:30;;;;;;;13.70;7.00;;;;;;;12.02;76.97;100769.73;100571;1287;107801;-58
2022/10/19 04:21:03;;;;;;;13.60;7.00;;;;;;;12.04;76.84;100764.48;100338;1290;139218;-56
2022/10/19 04:23:34;;;;;;;14.50;7.00;;;;;;;12.06;76.76;100769.24;100646;1291;95567;-57
2022/10/19 04:26:04;;;;;;;13.00;6.90;;;;;;;12.08;76.51;100767.25;100322;1290;138538;-58
2022/10/19 04:28:33;;;;;;;35.90;23.20;;;;;;;12.07;76.27;100770.29;100469;1298;98764;-58
2022/10/19 04:31:03;;;;;;;12.80;6.80;;;;;;;12.07;76.35;100765.12;100407;1290;107867;-57
2022/10/19 04:33:32;;;;;;;11.50;6.10;;;;;;;12.07;76.12;100761.73;100431;1291;96039;-58
2022/10/19 04:36:02;;;;;;;11.60;6.20;;;;;;;12.09;76.06;100759.20;100563;1290;95253;-56
2022/10/19 04:38:31;;;;;;;13.60;6.50;;;;;;;12.10;75.98;100757.20;100435;1291;138761;-57
2022/10/19 04:41:04;;;;;;;11.20;6.30;;;;;;;12.07;75.93;100756.05;100379;1290;98246;-56
2022/10/19 04:43:32;;;;;;;12.20;5.90;;;;;;;12.00;75.96;100756.95;100471;1290;139470;-57
2022/10/19 04:46:06;;;;;;;10.20;5.90;;;;;;;11.98;75.97;100754.86;100439;1290;95249;-58
2022/10/19 04:48:35;;;;;;;13.60;6.30;;;;;;;12.00;75.84;100751.60;100521;1290;95888;-57
2022/10/19 04:51:04;;;;;;;11.30;6.10;;;;;;;12.00;75.74;100749.30;100443;1291;138657;-56
2022/10/19 04:53:33;;;;;;;14.70;7.10;;;;;;;11.98;76.12;100744.18;100416;1283;98007;-57
2022/10/19 04:56:07;;;;;;;12.50;6.30;;;;;;;12.02;75.88;100748.34;100301;1290;139419;-56
2022/10/19 04:58:35;;;;;;;11.10;6.10;;;;;;;12.03;75.47;100743.51;100450;1283;95954;-57
2022/10/19 05:01:11;;;;;;;13.30;7.50;;;;;;;12.00;75.45;100739.67;100404;1291;96882;-57
2022/10/19 05:03:40;;;;;;;13.50;6.60;;;;;;;11.97;75.40;100740.48;100487;1285;108787;-57
2022/10/19 05:06:09;;;;;;;12.20;6.60;;;;;;;11.95;75.37;100740.88;100418;1291;99152;-57
2022/10/19 05:08:37;;;;;;;12.20;6.00;;;;;;;11.93;75.12;100737.16;100254;1291;138512;-58
2022/10/19 05:11:08;;;;;;;13.60;6.80;;;;;;;11.93;75.10;100738.41;100337;1290;95538;-58
2022/10/19 05:13:37;;;;;;;14.00;5.80;;;;;;;11.94;75.40;100739.84;100426;1290;139435;-59
2022/10/19 05:16:09;;;;;;;11.10;5.70;;;;;;;11.99;74.99;100740.95;100664;1290;109829;-58
2022/10/19 05:18:38;;;;;;;11.60;6.00;;;;;;;11.97;74.87;100737.45;100420;1290;98165;-58
2022/10/19 05:21:09;;;;;;;9.90;5.90;;;;;;;11.96;75.03;100740.16;100108;1288;138525;-60
2022/10/19 05:23:38;;;;;;;11.70;5.50;;;;;;;11.94;74.55;100739.46;100551;1290;96072;-57
2022/10/19 05:26:12;;;;;;;11.70;5.80;;;;;;;11.93;74.65;100745.34;100390;1290;138946;-57
2022/10/19 05:28:40;;;;;;;11.50;5.60;;;;;;;11.94;74.56;100744.27;100403;1291;108727;-57
2022/10/19 05:31:15;;;;;;;11.30;5.60;;;;;;;11.95;74.33;100746.02;100598;1301;97719;-58
2022/10/19 05:33:43;;;;;;;11.80;5.10;;;;;;;11.97;74.28;100750.44;100319;1294;107905;-60
2022/10/19 05:36:27;;;;;;;12.40;5.40;;;;;;;11.94;73.87;100745.16;100600;1291;95943;-58
2022/10/19 05:38:56;;;;;;;11.40;7.00;;;;;;;11.93;74.21;100746.26;100358;1290;139001;-58
2022/10/19 05:41:25;;;;;;;10.80;5.20;;;;;;;11.91;74.22;100747.90;100404;1297;109023;-58
2022/10/19 05:43:58;;;;;;;12.50;5.10;;;;;;;11.86;74.05;100747.66;100340;1293;139617;-58
2022/10/19 05:46:28;;;;;;;11.50;4.80;;;;;;;11.83;74.13;100750.76;100607;1290;107471;-57
2022/10/19 05:48:57;;;;;;;10.70;4.60;;;;;;;11.86;74.13;100750.52;100526;1291;95327;-59
2022/10/19 05:51:26;;;;;;;10.40;4.80;;;;;;;11.91;74.14;100750.74;100386;1292;139050;-58
2022/10/19 05:53:55;;;;;;;12.80;4.90;;;;;;;11.92;73.74;100746.98;100538;1292;108133;-58
2022/10/19 05:56:26;;;;;;;12.30;4.70;;;;;;;11.91;73.80;100747.02;100436;1296;138983;-58
2022/10/19 05:58:55;;;;;;;10.70;4.50;;;;;;;11.89;73.73;100744.75;100429;1298;107956;-59
2022/10/19 06:01:23;;;;;;;9.30;4.40;;;;;;;11.92;73.71;100745.56;100437;1297;138937;-59
2022/10/19 06:03:53;;;;;;;10.50;5.00;;;;;;;11.92;73.73;100746.43;100587;1314;95747;-58
2022/10/19 06:06:22;;;;;;;10.20;4.40;;;;;;;11.92;73.71;100748.05;100624;1290;109502;-58
2022/10/19 06:08:51;;;;;;;9.80;4.50;;;;;;;11.97;73.95;100751.14;100347;1290;139205;-58
2022/10/19 06:11:24;;;;;;;10.70;4.50;;;;;;;11.98;74.48;100751.48;100393;1297;108395;-58
2022/10/19 06:13:55;;;;;;;9.80;4.30;;;;;;;12.04;74.16;100750.97;100347;1296;139251;-58
2022/10/19 06:16:24;;;;;;;10.70;4.40;;;;;;;12.12;74.09;100747.92;100469;1308;95762;-59
2022/10/19 06:18:53;;;;;;;10.70;4.40;;;;;;;12.14;73.70;100749.98;100479;1290;108659;-58
2022/10/19 06:21:23;;;;;;;10.80;4.80;;;;;;;12.11;73.95;100753.45;100574;1297;138717;-57
2022/10/19 06:23:54;;;;;;;10.70;4.20;;;;;;;12.09;74.10;100751.55;100441;1296;108669;-60
2022/10/19 06:26:23;;;;;;;9.20;4.20;;;;;;;12.05;74.53;100746.52;100497;1290;139045;-56
2022/10/19 06:28:54;;;;;;;9.50;4.40;;;;;;;12.04;74.75;100746.52;100469;1311;95212;-57
2022/10/19 06:31:22;;;;;;;10.70;4.40;;;;;;;12.02;74.93;100749.94;100411;1296;138512;-56
2022/10/19 06:33:50;;;;;;;11.40;4.90;;;;;;;12.01;75.19;100753.71;100434;1290;98912;-57
2022/10/19 06:36:21;;;;;;;10.30;4.40;;;;;;;12.01;75.76;100756.73;100366;1288;108090;-56
2022/10/19 06:38:49;;;;;;;12.00;4.90;;;;;;;12.02;75.77;100759.02;100392;1290;139049;-58
2022/10/19 06:41:17;;;;;;;9.20;4.10;;;;;;;12.07;75.66;100756.06;100626;1292;96063;-56
2022/10/19 06:43:49;;;;;;;11.40;4.80;;;;;;;12.05;75.63;100759.65;100195;1288;139007;-58
2022/10/19 06:46:20;;;;;;;10.50;4.60;;;;;;;12.08;75.80;100756.20;100469;1290;98553;-58
2022/10/19 06:49:06;;;;;;;9.30;4.50;;;;;;;12.10;75.71;100754.91;100556;1290;106408;-58
2022/10/19 06:51:34;;;;;;;11.10;4.20;;;;;;;12.17;75.87;100753.29;100354;1291;138362;-58
2022/10/19 06:54:02;;;;;;;9.90;5.00;;;;;;;12.21;75.71;100747.83;100491;1290;95271;-57
2022/10/19 06:56:30;;;;;;;8.60;4.40;;;;;;;12.23;75.52;100742.10;100344;1292;139046;-58
2022/10/19 06:58:58;;;;;;;8.90;4.20;;;;;;;12.19;75.35;100745.21;100455;1296;99356;-57
2022/10/19 07:01:25;;;;;;;16.00;5.80;;;;;;;12.17;75.29;100750.59;100340;1297;138926;-57
2022/10/19 07:03:54;;;;;;;11.30;5.30;;;;;;;12.19;75.50;100750.38;100395;1290;95264;-56
2022/10/19 07:06:23;;;;;;;10.10;4.90;;;;;;;12.22;75.18;100749.27;100363;1289;95247;-58
2022/10/19 07:08:52;;;;;;;11.00;4.80;;;;;;;12.27;75.21;100752.67;100478;1292;138990;-57
2022/10/19 07:11:21;;;;;;;9.10;4.30;;;;;;;12.33;75.17;100754.61;100477;1308;98628;-58
2022/10/19 07:13:51;;;;;;;8.00;3.80;;;;;;;12.37;74.54;100751.14;100378;1290;139458;-57
2022/10/19 07:16:19;;;;;;;8.70;4.20;;;;;;;12.48;74.73;100750.84;100408;1297;95266;-57
2022/10/19 07:18:52;;;;;;;9.00;4.00;;;;;;;12.59;74.47;100755.14;100498;1290;95270;-57
2022/10/19 07:21:22;;;;;;;8.20;3.70;;;;;;;12.70;74.27;100752.52;100428;1312;138805;-57
2022/10/19 07:23:50;;;;;;;7.00;3.60;;;;;;;12.75;73.36;100748.46;100316;1297;99480;-59
2022/10/19 07:26:26;;;;;;;8.00;3.40;;;;;;;12.70;73.14;100752.49;100679;1293;140828;-57
2022/10/19 07:28:56;;;;;;;7.90;3.30;;;;;;;12.69;73.37;100750.21;100506;1290;95372;-57
2022/10/19 07:31:26;;;;;;;9.90;3.40;;;;;;;12.70;73.14;100755.54;100495;1292;138561;-57
2022/10/19 07:34:00;;;;;;;7.50;3.10;;;;;;;12.76;73.09;100758.05;100747;1291;108353;-58
2022/10/19 07:36:30;;;;;;;7.60;2.80;;;;;;;12.75;72.73;100757.89;100771;1291;97654;-58
2022/10/19 07:39:00;;;;;;;8.40;3.50;;;;;;;12.73;72.28;100756.52;100605;1290;139311;-58
2022/10/19 07:41:28;;;;;;;7.90;3.60;;;;;;;12.73;72.71;100762.58;100702;1289;95617;-58
2022/10/19 07:43:56;;;;;;;8.40;3.30;;;;;;;12.78;73.08;100766.54;100475;1295;138432;-57
2022/10/19 07:46:35;;;;;;;8.80;3.00;;;;;;;12.83;72.97;100767.98;100455;1291;108151;-57
2022/10/19 07:49:12;;;;;;;7.90;3.50;;;;;;;12.81;72.88;100765.37;100577;1291;98049;-57
2022/10/19 07:51:40;;;;;;;9.40;3.70;;;;;;;12.85;72.85;100762.05;100756;1296;107928;-58
2022/10/19 07:54:08;;;;;;;11.30;4.00;;;;;;;12.88;72.59;100756.44;100458;1291;96192;-57
2022/10/19 07:56:36;;;;;;;8.60;3.50;;;;;;;12.87;72.51;100755.92;100466;1290;138538;-57
2022/10/19 07:59:04;;;;;;;9.70;3.60;;;;;;;12.86;72.63;100759.16;100808;1300;109202;-58
2022/10/19 08:01:43;;;;;;;8.50;3.50;;;;;;;12.95;72.82;100765.84;100301;1297;138987;-59
2022/10/19 08:04:11;;;;;;;8.60;3.60;;;;;;;13.10;72.68;100768.44;100469;1304;107729;-59
2022/10/19 08:06:59;;;;;;;8.20;3.60;;;;;;;13.13;72.15;100765.48;100423;1291;95269;-59
2022/10/19 08:09:27;;;;;;;7.90;3.30;;;;;;;13.15;71.89;100764.16;100209;1285;139403;-58
2022/10/19 08:12:15;;;;;;;8.50;3.20;;;;;;;13.11;72.03;100760.56;100343;1290;109760;-58
2022/10/19 08:14:42;;;;;;;8.40;3.30;;;;;;;13.04;72.01;100759.52;100240;1291;138559;-59
2022/10/19 08:17:15;;;;;;;8.30;3.30;;;;;;;12.95;72.45;100762.10;100373;1291;108357;-58
2022/10/19 08:19:46;;;;;;;8.60;3.70;;;;;;;12.85;72.98;100765.96;100405;1290;138825;-59
2022/10/19 08:22:15;;;;;;;7.50;3.30;;;;;;;12.76;73.57;100766.05;100637;1290;96570;-59
2022/10/19 08:24:42;;;;;;;7.00;3.00;;;;;;;12.71;74.06;100762.63;100460;1314;109354;-57
2022/10/19 08:27:10;;;;;;;8.40;3.00;;;;;;;12.73;73.93;100764.55;100383;1292;139065;-59
2022/10/19 08:29:38;;;;;;;7.40;3.20;;;;;;;12.70;74.30;100767.63;100448;1291;108356;-58
2022/10/19 08:32:06;;;;;;;8.90;3.50;;;;;;;12.71;74.49;100767.98;100346;1285;138595;-59
2022/10/19 08:34:34;;;;;;;8.90;4.00;;;;;;;12.68;74.42;100765.73;100550;1291;95280;-59
2022/10/19 08:37:03;;;;;;;7.20;3.40;;;;;;;12.70;75.04;100764.63;100434;1291;109337;-58
2022/10/19 08:39:46;;;;;;;7.70;3.30;;;;;;;12.68;74.91;100762.73;100680;1292;99586;-59
2022/10/19 08:42:23;;;;;;;6.90;3.20;;;;;;;12.73;75.08;100759.02;100404;1290;107995;-60
2022/10/19 08:45:00;;;;;;;9.60;3.20;;;;;;;12.71;75.06;100763.34;100424;1287;140349;-58
2022/10/19 08:47:57;;;;;;;7.70;3.20;;;;;;;12.71;75.17;100763.54;100582;1292;95913;-57
2022/10/19 08:50:32;;;;;;;8.30;3.40;;;;;;;12.77;75.13;100759.43;100646;1298;137833;-57
2022/10/19 08:53:03;;;;;;;6.70;3.00;;;;;;;12.79;75.12;100762.21;100462;1290;99118;-58
2022/10/19 08:55:51;;;;;;;7.40;3.20;;;;;;;12.81;74.97;100762.16;100226;1291;139555;-56
2022/10/19 08:58:39;;;;;;;7.60;3.10;;;;;;;12.87;74.89;100760.91;100609;1291;95307;-58
2022/10/19 09:01:21;;;;;;;8.20;3.10;;;;;;;13.02;74.72;100765.47;100593;1283;96184;-58
2022/10/19 09:04:00;;;;;;;7.90;3.40;;;;;;;13.08;74.36;100768.15;100405;1291;109108;-57
2022/10/19 09:06:51;;;;;;;9.30;4.00;;;;;;;13.03;74.00;100772.39;100563;1289;97721;-58
2022/10/19 09:09:20;;;;;;;8.30;3.30;;;;;;;13.04;74.42;100770.57;100424;1290;151618;-58
2022/10/19 09:11:51;;;;;;;6.70;2.40;;;;;;;13.11;74.21;100777.12;100446;1291;96772;-60
2022/10/19 09:14:45;;;;;;;7.40;2.60;;;;;;;13.17;73.92;100774.63;100348;1291;138832;-57
2022/10/19 09:17:15;;;;;;;6.50;2.60;;;;;;;13.24;73.85;100776.90;100414;1297;107757;-57
2022/10/19 09:19:44;;;;;;;7.30;3.10;;;;;;;13.24;73.20;100778.88;100407;1290;138450;-60
2022/10/19 09:22:24;;;;;;;6.60;2.80;;;;;;;13.22;73.06;100777.14;100403;1289;107705;-58
2022/10/19 09:24:57;;;;;;;6.50;2.70;;;;;;;13.20;72.79;100781.10;100458;1291;95661;-58
2022/10/19 09:27:33;;;;;;;7.10;2.30;;;;;;;13.11;72.41;100781.58;100331;1292;138431;-59
2022/10/19 09:30:05;;;;;;;10.00;3.20;;;;;;;12.99;72.53;100782.29;100452;1307;108816;-59
2022/10/19 09:32:37;;;;;;;6.00;2.80;;;;;;;12.92;72.92;100781.45;100382;1291;138840;-57
2022/10/19 09:35:16;;;;;;;6.60;2.50;;;;;;;12.91;73.23;100784.33;100472;1285;107634;-58
2022/10/19 09:37:48;;;;;;;6.30;2.30;;;;;;;12.88;73.62;100785.81;100291;1291;139228;-59
2022/10/19 09:40:22;;;;;;;6.40;2.70;;;;;;;12.93;74.17;100794.09;100375;1292;95314;-58
2022/10/19 09:42:56;;;;;;;6.90;2.80;;;;;;;12.91;74.52;100791.11;100509;1289;108340;-57
2022/10/19 09:45:42;;;;;;;5.40;2.50;;;;;;;12.95;74.82;100799.88;100242;1287;139004;-58
2022/10/19 09:48:22;;;;;;;7.00;2.20;;;;;;;12.90;74.56;100800.39;100421;1291;107446;-59
2022/10/19 09:50:59;;;;;;;7.10;2.10;;;;;;;12.87;74.57;100800.30;100402;1283;138953;-60
2022/10/19 09:53:28;;;;;;;6.90;2.70;;;;;;;12.85;74.44;100795.56;100369;1298;95766;-58
2022/10/19 09:55:59;;;;;;;6.80;2.30;;;;;;;12.85;74.61;100801.07;100270;1291;139091;-58
2022/10/19 09:58:29;;;;;;;5.90;2.20;;;;;;;12.84;74.67;100802.16;100624;1284;97626;-59
2022/10/19 10:01:01;;;;;;;7.20;2.60;;;;;;;12.95;74.77;100803.12;100233;1290;108301;-59
2022/10/19 10:03:42;;;;;;;7.00;2.00;;;;;;;13.02;74.39;100800.58;100098;1286;139114;-56
2022/10/19 10:06:16;;;;;;;5.40;1.80;;;;;;;13.00;74.19;100806.33;100518;1283;95802;-57
2022/10/19 10:08:47;;;;;;;6.90;1.50;;;;;;;12.98;74.25;100806.03;100354;1290;138771;-58
2022/10/19 10:11:29;;;;;;;5.20;1.50;;;;;;;12.95;73.54;100812.54;100487;1299;97786;-57
2022/10/19 10:14:01;;;;;;;5.50;1.50;;;;;;;12.93;74.00;100824.71;100374;1291;138885;-56
2022/10/19 10:16:35;;;;;;;3.60;1.00;;;;;;;12.84;73.92;100856.16;100371;1292;95382;-56
2022/10/19 10:19:11;;;;;;;2.20;0.50;;;;;;;12.65;71.38;100857.41;100332;1300;95588;-57
2022/10/19 10:21:53;;;;;;;2.80;0.70;;;;;;;12.43;71.00;100856.05;100318;1291;138491;-59
2022/10/19 10:24:24;;;;;;;3.10;0.70;;;;;;;12.28;71.50;100857.67;101414;1290;99384;-57
2022/10/19 10:26:55;;;;;;;2.80;0.60;;;;;;;12.19;71.84;100853.27;100438;1291;138679;-57
2022/10/19 10:29:25;;;;;;;2.50;0.60;;;;;;;12.10;71.38;100849.95;100438;1291;95695;-57
2022/10/19 10:32:17;;;;;;;2.70;0.60;;;;;;;12.08;71.97;100849.83;100290;1290;139115;-57
2022/10/19 10:35:03;;;;;;;2.80;0.50;;;;;;;12.12;72.52;100847.94;100497;1290;109514;-56
2022/10/19 10:37:44;;;;;;;2.90;0.40;;;;;;;12.14;71.76;100844.52;100414;1291;139390;-57
2022/10/19 10:40:26;;;;;;;2.80;0.60;;;;;;;12.17;71.62;100847.11;100387;1291;109299;-58
2022/10/19 10:43:03;;;;;;;3.20;0.50;;;;;;;12.09;71.69;100848.90;100386;1291;95312;-58
2022/10/19 10:45:38;;;;;;;2.40;0.40;;;;;;;12.01;71.93;100851.77;100338;1283;139294;-57
2022/10/19 10:48:50;;;;;;;2.20;0.50;;;;;;;12.06;72.14;100847.01;100356;1293;108808;-58
2022/10/19 10:51:22;;;;;;;3.20;0.60;;;;;;;12.08;71.86;100849.48;99689;1297;139289;-58
2022/10/19 10:54:07;;;;;;;2.60;0.60;;;;;;;12.11;72.19;100850.47;100488;1291;107826;-56
2022/10/19 10:56:39;;;;;;;3.80;0.70;;;;;;;12.08;71.90;100853.20;100247;1286;138864;-57
2022/10/19 10:59:20;;;;;;;3.20;0.70;;;;;;;12.04;71.70;100848.33;100420;1283;95788;-57
2022/10/19 11:02:24;;;;;;;3.20;0.70;;;;;;;12.01;72.07;100842.34;100340;1284;139006;-57
2022/10/19 11:05:03;;;;;;;4.00;1.10;;;;;;;12.12;72.09;100845.98;100487;1290;98656;-56
2022/10/19 11:07:34;;;;;;;4.00;1.00;;;;;;;12.30;72.11;100846.04;100241;1290;138783;-57
2022/10/19 11:10:23;;;;;;;3.70;0.80;;;;;;;12.47;72.39;100845.59;100376;1291;95307;-57
2022/10/19 11:13:24;;;;;;;4.00;0.90;;;;;;;12.64;71.72;100842.83;100403;1291;95127;-58
2022/10/19 11:15:58;;;;;;;3.50;0.90;;;;;;;12.70;71.20;100836.23;100406;1283;108247;-58
2022/10/19 11:18:41;;;;;;;5.00;1.10;;;;;;;12.77;71.42;100835.15;100519;1284;98840;-58
2022/10/19 11:21:15;;;;;;;3.70;1.10;;;;;;;12.74;71.42;100843.61;100292;1298;139134;-56
2022/10/19 11:23:52;;;;;;;4.30;1.30;;;;;;;12.72;71.82;100844.05;100487;1291;95842;-57
2022/10/19 11:26:45;;;;;;;4.50;1.10;;;;;;;12.74;72.30;100840.20;100302;1283;138872;-58
2022/10/19 11:29:33;;;;;;;4.10;1.10;;;;;;;12.81;72.65;100838.42;100472;1299;109471;-58
2022/10/19 11:32:01;;;;;;;4.00;1.20;;;;;;;12.84;73.02;100836.39;100178;1291;140128;-57
2022/10/19 11:34:37;;;;;;;3.70;1.20;;;;;;;12.88;73.64;100836.08;100373;1309;106916;-58